.
WxDataArchive / Data Records for 2007-06-02
2007-06-01 June 2007 2007-06-03

Data Records for Saturday, 02 June 2007

Time	Temp	Chill	HIndex	Humid	Dewpt	 Wind 	HiWind	WindDir	Rain 	Barom 
-----	----	-----	------	-----	-----	------	------	-------	-----	----- 
00:00	71.5	71.5	71.5	70	61.2	0	0	---	0.00	29.854 
00:05	71.3	71.3	71.3	71	61.4	0	0	---	0.00	29.852 
00:10	70.9	70.9	70.9	71	61.0	0	0	---	0.00	29.849 
00:15	70.8	70.8	70.8	72	61.3	0	0	---	0.00	29.846 
00:20	70.4	70.4	70.4	73	61.3	0	0	---	0.00	29.843 
00:25	70.1	70.1	70.1	73	61.0	0	0	---	0.00	29.841 
00:30	69.9	69.9	69.9	73	60.8	0	0	---	0.00	29.840 
00:35	69.6	69.6	69.6	75	61.3	0	0	---	0.00	29.840 
00:40	69.4	69.4	69.4	75	61.1	0	0	---	0.00	29.840 
00:45	69.1	69.1	69.1	76	61.2	0	0	---	0.00	29.842 
00:50	68.9	68.9	68.9	76	61.0	0	0	---	0.00	29.842 
00:55	68.8	68.8	68.8	76	60.9	0	0	---	0.00	29.841 
01:00	68.6	68.6	68.6	77	61.1	0	0	---	0.00	29.841 
01:05	68.4	68.4	68.4	77	60.9	0	0	---	0.00	29.840 
01:10	68.4	68.4	68.4	77	60.9	0	0	---	0.00	29.840 
01:15	68.4	68.4	68.4	77	60.9	0	0	---	0.00	29.840 
01:20	68.3	68.3	68.3	77	60.8	0	0	---	0.00	29.839 
01:25	68.3	68.3	68.3	78	61.2	0	0	---	0.00	29.840 
01:30	68.1	68.1	68.1	78	61.0	0	0	---	0.00	29.839 
01:35	68.1	68.1	68.1	78	61.0	0	0	---	0.00	29.840 
01:40	68.1	68.1	68.1	78	61.0	0	0	---	0.00	29.839 
01:45	67.9	67.9	67.9	79	61.1	0	0	---	0.00	29.838 
01:50	67.9	67.9	67.9	79	61.1	0	0	---	0.00	29.836 
01:55	67.8	67.8	67.8	80	61.4	0	0	---	0.00	29.837 
02:00	67.8	67.8	67.8	80	61.4	0	0	---	0.00	29.832 
02:05	67.8	67.8	67.8	80	61.4	0	0	---	0.00	29.832 
02:10	67.8	67.8	67.8	80	61.4	0	0	---	0.00	29.832 
02:15	67.6	67.6	67.6	81	61.6	0	1	248	0.00	29.830 
02:20	67.8	67.8	67.8	80	61.4	0	0	---	0.00	29.833 
02:25	67.8	67.8	67.8	81	61.7	0	0	---	0.00	29.835 
02:30	67.6	67.6	67.6	81	61.6	0	0	---	0.00	29.835 
02:35	67.6	67.6	67.6	81	61.6	0	0	---	0.00	29.835 
02:40	67.4	67.4	67.4	81	61.4	0	0	---	0.00	29.834 
02:45	67.3	67.3	67.3	81	61.3	0	0	---	0.00	29.834 
02:50	67.1	67.1	67.1	82	61.4	0	0	---	0.00	29.832 
02:55	66.9	66.9	66.9	82	61.2	0	0	---	0.00	29.834 
03:00	66.9	66.9	66.9	83	61.6	0	0	---	0.00	29.836 
03:05	66.9	66.9	66.9	83	61.6	0	0	---	0.00	29.836 
03:10	66.8	66.8	66.8	83	61.5	0	0	---	0.00	29.835 
03:15	66.8	66.8	66.8	83	61.5	0	0	---	0.00	29.834 
03:20	66.6	66.6	66.6	84	61.6	0	0	---	0.00	29.834 
03:25	66.6	66.6	66.6	84	61.6	0	0	---	0.00	29.834 
03:30	66.4	66.4	66.4	84	61.4	0	1	248	0.00	29.836 
03:35	66.4	66.4	66.4	84	61.4	0	0	---	0.00	29.836 
03:40	66.6	66.6	66.6	84	61.6	0	0	---	0.00	29.839 
03:45	66.4	66.4	66.4	84	61.4	0	0	---	0.00	29.841 
03:50	66.4	66.4	66.4	84	61.4	0	0	---	0.00	29.840 
03:55	66.3	66.3	66.3	84	61.3	0	0	---	0.00	29.841 
04:00	66.1	66.1	66.1	84	61.1	0	0	---	0.00	29.839 
04:05	66.1	66.1	66.1	85	61.5	0	0	---	0.00	29.838 
04:10	66.0	66.0	66.0	85	61.4	0	0	---	0.00	29.838 
04:15	65.8	65.8	65.8	85	61.2	0	0	---	0.00	29.838 
04:20	65.8	65.8	65.8	86	61.5	0	0	---	0.00	29.837 
04:25	65.8	65.8	65.8	85	61.2	0	0	---	0.00	29.837 
04:30	65.8	65.8	65.8	85	61.2	0	0	---	0.00	29.834 
04:35	66.0	66.0	66.0	85	61.4	0	0	---	0.00	29.834 
04:40	66.1	66.1	66.1	85	61.5	0	1	248	0.00	29.836 
04:45	66.3	66.3	66.3	85	61.6	0	2	248	0.00	29.839 
04:50	66.4	66.4	66.4	84	61.4	0	1	248	0.00	29.838 
04:55	66.4	66.4	66.4	84	61.4	0	1	248	0.00	29.837 
05:00	66.6	66.6	66.6	84	61.6	0	2	248	0.00	29.836 
05:05	66.6	66.6	66.6	84	61.6	0	0	---	0.00	29.839 
05:10	66.4	66.4	66.4	84	61.4	0	1	248	0.00	29.839 
05:15	66.4	66.4	66.4	84	61.4	0	0	---	0.00	29.842 
05:20	66.3	66.3	66.3	84	61.3	0	1	248	0.00	29.842 
05:25	66.1	66.1	66.1	84	61.1	0	0	---	0.00	29.843 
05:30	66.1	66.1	66.1	84	61.1	0	0	---	0.00	29.843 
05:35	66.1	66.1	66.1	85	61.5	0	0	---	0.00	29.844 
05:40	66.3	66.3	66.3	84	61.3	0	1	248	0.00	29.845 
05:45	66.4	66.4	66.4	84	61.4	0	1	248	0.00	29.846 
05:50	66.6	66.6	66.6	84	61.6	0	1	248	0.00	29.844 
05:55	66.8	66.8	66.8	84	61.8	0	1	248	0.00	29.844 
06:00	67.1	67.1	67.1	83	61.8	0	1	248	0.00	29.845 
06:05	67.3	67.3	67.3	83	62.0	0	1	248	0.00	29.845 
06:10	67.6	67.6	67.6	82	61.9	0	1	248	0.00	29.842 
06:15	68.1	68.1	68.1	81	62.0	0	1	248	0.00	29.842 
06:20	68.6	68.6	68.6	80	62.2	0	1	248	0.00	29.842 
06:25	68.9	68.9	68.9	79	62.1	0	2	248	0.00	29.842 
06:30	69.4	69.4	69.4	79	62.6	0	2	248	0.00	29.841 
06:35	69.8	69.8	69.8	78	62.6	0	1	248	0.00	29.840 
06:40	70.3	70.3	70.3	77	62.7	0	1	248	0.00	29.840 
06:45	70.6	70.6	70.6	76	62.7	0	2	248	0.00	29.841 
06:50	70.9	70.9	70.9	76	62.9	0	1	248	0.00	29.840 
06:55	71.5	71.5	71.5	74	62.8	0	1	248	0.00	29.840 
07:00	71.8	71.8	71.8	74	63.1	0	2	248	0.00	29.838 
07:05	72.1	72.1	72.1	73	63.0	1	3	248	0.00	29.840 
07:10	72.5	72.5	72.5	73	63.3	0	1	248	0.00	29.835 
07:15	73.0	73.0	73.0	72	63.4	0	2	248	0.00	29.833 
07:20	73.3	73.3	73.3	71	63.3	0	2	248	0.00	29.834 
07:25	74.0	74.0	74.0	71	64.0	0	1	248	0.00	29.833 
07:30	74.4	74.4	74.4	70	64.0	1	2	248	0.00	29.833 
07:35	74.7	74.7	74.7	69	63.8	0	2	248	0.00	29.832 
07:40	74.9	74.9	74.9	68	63.6	1	2	248	0.00	29.835 
07:45	75.3	75.3	77.1	68	64.0	1	3	248	0.00	29.833 
07:50	75.4	75.4	77.2	68	64.1	1	2	248	0.00	29.834 
07:55	75.6	75.6	77.3	69	64.7	0	2	248	0.00	29.833 
08:00	75.8	75.8	77.6	67	64.0	1	4	248	0.00	29.834 
08:05	76.0	76.0	77.8	67	64.2	1	5	270	0.00	29.839 
08:10	76.3	76.3	78.1	66	64.1	1	3	292	0.00	29.837 
08:15	76.3	76.3	78.1	67	64.5	1	3	248	0.00	29.836 
08:20	76.5	76.5	78.3	66	64.3	1	4	248	0.00	29.832 
08:25	76.7	76.7	78.5	67	64.9	1	3	248	0.00	29.831 
08:30	77.0	77.0	78.8	68	65.6	1	2	248	0.00	29.828 
08:35	77.4	77.4	79.2	66	65.1	1	2	248	0.00	29.828 
08:40	77.7	77.7	79.5	65	65.0	1	3	248	0.00	29.828 
08:45	78.1	78.1	80.0	65	65.4	1	3	248	0.00	29.827 
08:50	78.5	78.5	80.5	66	66.2	0	3	225	0.00	29.827 
08:55	78.8	78.8	80.8	65	66.0	1	2	225	0.00	29.824 
09:00	79.2	79.2	81.2	64	65.9	1	2	225	0.00	29.824 
09:05	79.4	79.4	81.5	64	66.1	1	2	248	0.00	29.826 
09:10	79.6	79.6	81.6	63	65.9	1	3	248	0.00	29.824 
09:15	79.8	79.8	81.8	62	65.6	1	3	248	0.00	29.824 
09:20	80.3	80.3	82.2	60	65.1	1	3	248	0.00	29.824 
09:25	80.9	80.9	82.8	59	65.2	0	2	135	0.00	29.822 
09:30	81.4	81.4	83.6	60	66.2	1	3	202	0.00	29.820 
09:35	81.8	81.8	84.1	60	66.5	0	3	270	0.00	29.814 
09:40	82.0	82.0	84.1	58	65.7	1	3	270	0.00	29.813 
09:45	81.8	81.8	83.8	58	65.6	1	3	248	0.00	29.814 
09:50	82.0	82.0	84.1	58	65.7	1	2	248	0.00	29.816 
09:55	82.6	82.6	84.9	58	66.3	1	2	248	0.00	29.815 
10:00	83.2	83.2	85.6	57	66.4	0	2	135	0.00	29.817 
10:05	83.0	83.0	85.1	56	65.7	1	3	270	0.00	29.818 
10:10	82.8	82.8	84.8	56	65.5	0	1	270	0.00	29.817 
10:15	83.2	83.2	85.6	57	66.4	1	3	270	0.00	29.817 
10:20	83.6	83.6	86.4	58	67.2	1	5	270	0.00	29.815 
10:25	84.0	84.0	87.3	59	68.1	1	5	112	0.00	29.816 
10:30	84.0	84.0	86.0	54	65.5	2	5	270	0.00	29.819 
10:35	84.0	84.0	86.7	57	67.1	1	5	270	0.00	29.818 
10:40	84.1	84.1	86.4	55	66.2	1	3	248	0.00	29.819 
10:45	84.1	84.1	86.2	54	65.6	2	6	270	0.00	29.812 
10:50	84.3	84.3	86.5	54	65.8	1	3	270	0.00	29.809 
10:55	84.3	84.3	86.2	53	65.3	2	4	270	0.00	29.810 
11:00	84.0	84.0	86.0	54	65.5	1	4	292	0.00	29.809 
11:05	84.3	84.3	86.2	53	65.3	2	4	248	0.00	29.809 
11:10	84.7	84.7	86.8	53	65.6	1	4	270	0.00	29.808 
11:15	85.3	85.3	86.6	49	63.9	2	4	270	0.00	29.808 
11:20	85.3	85.3	86.6	49	63.9	1	4	248	0.00	29.807 
11:25	84.7	84.7	85.6	48	62.8	2	4	248	0.00	29.807 
11:30	84.5	84.5	86.0	51	64.4	1	3	270	0.00	29.807 
11:35	85.1	85.1	86.4	49	63.8	1	4	270	0.00	29.806 
11:40	85.3	85.3	87.1	51	65.1	1	4	270	0.00	29.805 
11:45	85.7	85.7	87.4	50	64.9	1	4	248	0.00	29.799 
11:50	85.5	85.5	86.9	49	64.1	1	2	248	0.00	29.796 
11:55	85.3	85.3	86.1	47	62.8	1	3	270	0.00	29.793 
12:00	85.9	85.9	86.7	46	62.7	2	4	270	0.00	29.791 
12:05	86.1	86.1	87.2	47	63.5	1	4	292	0.00	29.791 
12:10	85.5	85.5	86.6	48	63.5	1	2	315	0.00	29.789 
12:15	86.1	86.1	87.5	48	64.1	1	3	270	0.00	29.786 
12:20	86.5	86.5	87.8	47	63.8	1	3	270	0.00	29.777 
12:25	86.7	86.7	87.8	46	63.4	1	4	292	0.00	29.776 
12:30	86.7	86.7	88.3	48	64.6	1	2	315	0.00	29.775 
12:35	87.2	87.2	88.2	45	63.2	1	4	292	0.00	29.773 
12:40	87.4	87.4	87.9	43	62.1	1	3	270	0.00	29.772 
12:45	86.5	86.5	87.5	46	63.2	1	3	315	0.00	29.768 
12:50	87.0	87.0	87.4	43	61.8	1	2	292	0.00	29.764 
12:55	88.0	88.0	89.0	44	63.3	1	6	68	0.00	29.762 
13:00	88.2	88.2	89.0	43	62.8	1	3	270	0.00	29.760 
13:05	87.0	87.0	86.9	41	60.4	1	4	248	0.00	29.761 
13:10	85.7	85.7	86.0	44	61.2	1	2	248	0.00	29.761 
13:15	84.9	84.9	85.4	46	61.8	1	3	248	0.00	29.763 
13:20	84.5	84.5	86.0	51	64.4	1	4	248	0.00	29.763 
13:25	84.7	84.7	85.4	47	62.2	1	3	248	0.00	29.761 
13:30	84.9	84.9	85.2	45	61.2	1	5	270	0.00	29.762 
13:35	84.9	84.9	85.4	46	61.8	1	3	270	0.00	29.759 
13:40	85.1	85.1	85.2	44	60.7	1	3	270	0.00	29.756 
13:45	84.9	84.9	85.2	45	61.2	0	2	270	0.00	29.747 
13:50	84.9	84.9	85.4	46	61.8	1	3	270	0.00	29.748 
13:55	85.5	85.5	86.6	48	63.5	2	4	270	0.00	29.747 
14:00	85.9	85.9	86.0	43	60.8	2	6	292	0.00	29.744 
14:05	86.5	86.5	87.5	46	63.2	1	5	248	0.00	29.740 
14:10	87.0	87.0	87.1	42	61.1	1	3	292	0.00	29.735 
14:15	87.4	87.4	87.1	40	60.1	2	5	270	0.00	29.732 
14:20	87.6	87.6	87.4	40	60.3	1	4	270	0.00	29.730 
14:25	88.0	88.0	88.2	41	61.3	1	6	270	0.00	29.729 
14:30	88.4	88.4	88.7	41	61.7	1	3	248	0.00	29.725 
14:35	88.6	88.6	88.7	40	61.1	2	5	270	0.00	29.720 
14:40	88.6	88.6	88.7	40	61.1	2	5	270	0.00	29.717 
14:45	89.0	89.0	89.0	39	60.8	1	5	292	0.00	29.715 
14:50	89.5	89.5	89.6	39	61.2	2	6	270	0.00	29.714 
14:55	89.7	89.7	89.6	38	60.7	1	5	248	0.00	29.714 
15:00	89.0	89.0	89.0	39	60.8	1	3	90	0.00	29.712 
15:05	88.8	88.8	89.0	40	61.3	1	6	270	0.00	29.715 
15:10	85.9	85.9	87.5	49	64.5	4	11	90	0.00	29.716 
15:15	83.6	83.6	85.2	53	64.6	2	5	112	0.00	29.717 
15:20	82.4	82.4	83.9	54	64.1	2	5	112	0.00	29.718 
15:25	82.0	82.0	83.6	55	64.2	1	4	90	0.00	29.717 
15:30	82.8	82.8	84.4	54	64.4	2	4	112	0.00	29.714 
15:35	82.6	82.6	84.3	55	64.8	3	6	90	0.00	29.712 
15:40	82.6	82.6	84.1	54	64.2	2	7	112	0.00	29.718 
15:45	82.4	82.4	83.7	53	63.5	2	5	90	0.00	29.717 
15:50	82.6	82.6	84.1	54	64.2	3	10	90	0.00	29.716 
15:55	82.2	82.2	84.0	56	64.9	4	10	90	0.00	29.706 
16:00	81.1	81.1	82.8	57	64.4	4	10	90	0.00	29.705 
16:05	81.2	81.2	82.7	56	64.0	2	5	90	0.00	29.703 
16:10	81.8	81.8	83.5	56	64.5	2	4	90	0.00	29.701 
16:15	82.6	82.6	84.1	54	64.2	3	6	90	0.00	29.701 
16:20	83.2	83.2	84.5	52	63.7	3	9	90	0.00	29.699 
16:25	83.2	83.2	84.7	53	64.3	3	9	90	0.00	29.698 
16:30	83.0	83.0	84.5	53	64.1	3	6	112	0.00	29.693 
16:35	82.6	82.6	84.1	54	64.2	3	6	90	0.00	29.696 
16:40	82.6	82.6	84.3	55	64.8	3	7	90	0.00	29.693 
16:45	82.6	82.6	84.3	55	64.8	3	10	90	0.00	29.690 
16:50	82.6	82.6	84.5	56	65.3	4	11	112	0.00	29.688 
16:55	82.2	82.2	84.2	57	65.4	4	7	90	0.00	29.690 
17:00	82.0	82.0	84.1	58	65.7	3	5	112	0.00	29.688 
17:05	82.2	82.2	84.2	57	65.4	2	7	90	0.00	29.691 
17:10	82.4	82.4	84.8	59	66.6	3	6	90	0.00	29.695 
17:15	82.0	82.0	84.2	59	66.2	3	9	112	0.00	29.689 
17:20	81.8	81.8	84.0	59	66.0	2	5	90	0.00	29.688 
17:25	81.2	81.2	83.0	58	65.0	3	9	90	0.00	29.692 
17:30	79.8	79.8	81.6	60	64.7	4	10	90	0.00	29.697 
17:35	78.6	78.6	80.3	61	64.0	3	7	90	0.00	29.693 
17:40	78.5	78.5	80.2	60	63.4	1	3	90	0.00	29.691 
17:45	78.6	78.6	80.2	59	63.1	2	4	90	0.00	29.690 
17:50	78.8	78.8	80.4	59	63.2	1	3	112	0.00	29.689 
17:55	79.0	79.0	80.5	58	62.9	2	4	112	0.00	29.690 
18:00	78.8	78.8	80.4	59	63.2	1	4	112	0.00	29.690 
18:05	78.5	78.5	80.1	59	63.0	2	4	112	0.00	29.688 
18:10	78.1	78.1	79.8	60	63.1	2	6	112	0.00	29.687 
18:15	77.9	77.9	79.6	60	62.9	2	5	112	0.00	29.686 
18:20	77.6	77.6	79.3	60	62.6	3	5	90	0.00	29.686 
18:25	77.4	77.4	79.2	62	63.3	3	6	90	0.00	29.689 
18:30	77.2	77.2	79.0	63	63.6	1	4	90	0.00	29.688 
18:35	76.8	76.8	78.6	64	63.7	1	2	90	0.00	29.687 
18:40	76.8	76.8	78.6	65	64.1	0	2	90	0.00	29.686 
18:45	76.8	76.8	78.6	65	64.1	1	3	90	0.00	29.686 
18:50	76.8	76.8	78.6	65	64.1	1	4	90	0.00	29.686 
18:55	76.8	76.8	78.6	65	64.1	1	3	90	0.00	29.686 
19:00	76.8	76.8	78.6	65	64.1	1	1	90	0.00	29.686 
19:05	77.0	77.0	78.8	64	63.9	1	2	90	0.00	29.683 
19:10	77.2	77.2	79.0	65	64.5	1	3	112	0.00	29.683 
19:15	77.4	77.4	79.2	65	64.7	2	5	135	0.00	29.694 
19:20	77.2	77.2	79.0	62	63.2	3	11	90	0.00	29.698 
19:25	75.8	75.8	77.8	62	61.8	3	6	112	0.00	29.694 
19:30	74.7	74.7	74.7	61	60.3	3	7	90	0.00	29.687 
19:35	74.0	74.0	74.0	64	61.0	2	4	90	0.00	29.685 
19:40	73.2	73.2	73.2	67	61.6	2	5	90	0.00	29.686 
19:45	72.0	72.0	72.0	67	60.4	2	6	112	0.00	29.686 
19:50	71.3	71.3	71.3	70	61.0	1	2	90	0.00	29.682 
19:55	70.9	70.9	70.9	71	61.0	1	3	90	0.00	29.687 
20:00	70.8	70.8	70.8	72	61.3	1	3	90	0.00	29.689 
20:05	70.8	70.8	70.8	72	61.3	1	3	112	0.00	29.690 
20:10	70.9	70.9	70.9	72	61.4	1	2	112	0.00	29.692 
20:15	71.3	71.3	71.3	71	61.4	1	4	135	0.00	29.690 
20:20	71.8	71.8	71.8	69	61.1	1	4	112	0.00	29.690 
20:25	72.3	72.3	72.3	70	62.0	3	6	112	0.00	29.690 
20:30	72.1	72.1	72.1	72	62.6	1	3	112	0.00	29.689 
20:35	71.8	71.8	71.8	73	62.7	0	2	135	0.00	29.687 
20:40	71.6	71.6	71.6	73	62.5	1	3	135	0.00	29.686 
20:45	71.3	71.3	71.3	74	62.6	2	3	135	0.00	29.686 
20:50	71.1	71.1	71.1	75	62.8	0	1	135	0.00	29.685 
20:55	70.9	70.9	70.9	75	62.6	0	2	135	0.00	29.684 
21:00	70.8	70.8	70.8	75	62.5	0	1	135	0.00	29.684 
21:05	70.8	70.8	70.8	75	62.5	0	2	135	0.00	29.682 
21:10	70.8	70.8	70.8	75	62.5	0	1	135	0.00	29.682 
21:15	70.9	70.9	70.9	76	62.9	1	3	135	0.00	29.690 
21:20	70.6	70.6	70.6	81	64.5	1	2	270	0.07	29.684 
21:25	69.9	69.9	69.9	84	64.8	0	3	270	0.00	29.694 
21:30	69.4	69.4	69.4	87	65.4	0	1	270	0.00	29.695 
21:35	69.3	69.3	69.3	88	65.6	1	3	270	0.00	29.688 
21:40	69.1	69.1	69.1	89	65.7	0	0	---	0.00	29.688 
21:45	68.8	68.8	68.8	89	65.4	0	0	---	0.00	29.685 
21:50	68.6	68.6	68.6	91	65.9	0	1	270	0.00	29.685 
21:55	68.4	68.4	68.4	91	65.7	0	0	---	0.00	29.687 
22:00	68.3	68.3	68.3	91	65.6	0	0	---	0.00	29.687 
22:05	68.1	68.1	68.1	91	65.4	0	0	---	0.00	29.685 
22:10	67.9	67.9	67.9	92	65.5	0	0	---	0.00	29.684 
22:15	67.8	67.8	67.8	92	65.4	0	0	---	0.00	29.686 
22:20	67.6	67.6	67.6	92	65.2	0	0	---	0.00	29.686 
22:25	67.4	67.4	67.4	92	65.0	0	0	---	0.00	29.687 
22:30	67.4	67.4	67.4	93	65.3	0	1	270	0.00	29.685 
22:35	67.6	67.6	67.6	92	65.2	0	1	270	0.00	29.681 
22:40	67.6	67.6	67.6	92	65.2	0	0	---	0.00	29.676 
22:45	67.4	67.4	67.4	92	65.0	0	0	---	0.00	29.676 
22:50	67.3	67.3	67.3	92	64.9	0	0	---	0.00	29.675 
22:55	67.4	67.4	67.4	93	65.3	0	1	270	0.00	29.670 
23:00	67.4	67.4	67.4	93	65.3	0	0	---	0.00	29.670 
23:05	67.3	67.3	67.3	93	65.2	0	0	---	0.00	29.668 
23:10	67.3	67.3	67.3	93	65.2	0	0	---	0.00	29.667 
23:15	67.1	67.1	67.1	93	65.0	0	0	---	0.00	29.666 
23:20	67.1	67.1	67.1	93	65.0	0	0	---	0.00	29.665 
23:25	67.1	67.1	67.1	94	65.3	0	0	---	0.00	29.668 
23:30	67.1	67.1	67.1	94	65.3	0	0	---	0.00	29.668 
23:35	67.1	67.1	67.1	94	65.3	0	0	---	0.00	29.668 
23:40	66.9	66.9	66.9	94	65.1	0	0	---	0.00	29.667 
23:45	66.9	66.9	66.9	94	65.1	0	0	---	0.00	29.667 
23:50	66.9	66.9	66.9	94	65.1	0	0	---	0.00	29.667 
23:55	66.8	66.8	66.8	94	65.0	0	0	---	0.00	29.666 

CoCoRaHS
IN-AL-39
A2 Web Hosting
Creative Commons License
GoDaddy
Look for:

loaded 2017-12-10 21:34:56 • last modified 2010-11-18 10:43:29
Privacy PolicyDisclaimer
• wx.awcolley.com is powered by PmWiki v.2002016 •
• all content (unless otherwise noted) © 2017 A W Colley